createdAt,value
2023-04-18T00:00:00.207Z,981.7
2023-04-18T00:01:00.172Z,981.7
2023-04-18T00:02:00.288Z,981.7
2023-04-18T00:03:03.221Z,981.9
2023-04-18T00:04:00.451Z,981.9
2023-04-18T00:05:00.332Z,981.7
2023-04-18T00:06:00.202Z,981.9
2023-04-18T00:07:00.191Z,981.9
2023-04-18T00:08:00.200Z,981.9
2023-04-18T00:09:00.232Z,981.9
2023-04-18T00:10:00.243Z,982.1
2023-04-18T00:11:00.207Z,982.1
2023-04-18T00:12:00.195Z,982.1
2023-04-18T00:13:00.209Z,982.1
2023-04-18T00:14:00.202Z,982.1
2023-04-18T00:15:00.205Z,981.9
2023-04-18T00:16:00.218Z,982.1
2023-04-18T00:17:00.248Z,982.1
2023-04-18T00:18:00.288Z,982.1
2023-04-18T00:19:00.207Z,982.1
2023-04-18T00:20:00.217Z,982.3
2023-04-18T00:21:00.207Z,982.1
2023-04-18T00:22:00.216Z,982.3
2023-04-18T00:23:00.214Z,982.3
2023-04-18T00:24:00.210Z,982.3
2023-04-18T00:25:00.233Z,982.3
2023-04-18T00:26:00.213Z,982.3
2023-04-18T00:27:00.215Z,982.3
2023-04-18T00:28:00.226Z,982.3
2023-04-18T00:29:00.209Z,982.3
2023-04-18T00:30:00.230Z,982.3
2023-04-18T00:31:00.280Z,982.3
2023-04-18T00:32:00.210Z,982.3
2023-04-18T00:33:00.280Z,982.3
2023-04-18T00:34:00.213Z,982.3
2023-04-18T00:35:00.214Z,982.3
2023-04-18T00:36:00.221Z,982.3
2023-04-18T00:37:00.235Z,982.3
2023-04-18T00:38:00.229Z,982.3
2023-04-18T00:39:00.246Z,982.3
2023-04-18T00:40:00.285Z,982.3
2023-04-18T00:41:00.223Z,982.3
2023-04-18T00:42:00.228Z,982.3
2023-04-18T00:43:00.240Z,982.3
2023-04-18T00:44:00.223Z,982.3
2023-04-18T00:45:00.273Z,982.5
2023-04-18T00:46:00.341Z,982.3
2023-04-18T00:47:00.237Z,982.3
2023-04-18T00:48:00.311Z,982.3
2023-04-18T00:49:00.232Z,982.3
2023-04-18T00:50:00.272Z,982.3
2023-04-18T00:51:01.170Z,982.3
2023-04-18T00:52:00.249Z,982.3
2023-04-18T00:53:00.231Z,982.1
2023-04-18T00:54:00.236Z,982.1
2023-04-18T00:55:00.253Z,982.3
2023-04-18T00:56:00.244Z,982.3
2023-04-18T00:57:00.265Z,982.3
2023-04-18T00:58:00.254Z,982.1
2023-04-18T00:59:00.260Z,982.1
2023-04-18T01:00:00.270Z,982.1
2023-04-18T01:01:00.261Z,982.3
2023-04-18T01:02:00.537Z,982.7
2023-04-18T01:03:00.398Z,982.3
2023-04-18T01:04:00.406Z,982.3
2023-04-18T01:05:00.271Z,982.3
2023-04-18T01:06:00.250Z,982.3
2023-04-18T01:07:00.255Z,982.3
2023-04-18T01:08:00.251Z,982.3
2023-04-18T01:09:00.277Z,982.3
2023-04-18T01:10:00.268Z,982.3
2023-04-18T01:11:00.251Z,982.3
2023-04-18T01:12:00.254Z,982.3
2023-04-18T01:13:00.258Z,982.3
2023-04-18T01:14:00.271Z,982.3
2023-04-18T01:15:00.277Z,982.3
2023-04-18T01:16:00.314Z,982.3
2023-04-18T01:17:00.260Z,982.5
2023-04-18T01:18:00.349Z,982.3
2023-04-18T01:19:00.267Z,982.3
2023-04-18T01:20:00.273Z,982.5
2023-04-18T01:21:00.286Z,982.5
2023-04-18T01:22:00.282Z,982.5
2023-04-18T01:23:00.269Z,982.5
2023-04-18T01:24:00.274Z,982.3
2023-04-18T01:25:00.296Z,982.5
2023-04-18T01:26:00.267Z,982.3
2023-04-18T01:27:00.282Z,982.5
2023-04-18T01:28:00.270Z,982.3
2023-04-18T01:29:00.287Z,982.3
2023-04-18T01:30:00.270Z,982.3
2023-04-18T01:31:00.311Z,982.3
2023-04-18T01:32:00.285Z,982.3
2023-04-18T01:33:00.401Z,982.3
2023-04-18T01:34:00.281Z,982.3
2023-04-18T01:35:00.293Z,982.3
2023-04-18T01:36:00.274Z,982.3
2023-04-18T01:37:00.307Z,982.3
2023-04-18T01:38:00.289Z,982.3
2023-04-18T01:39:00.306Z,982.3
2023-04-18T01:40:00.293Z,982.1
2023-04-18T01:41:00.300Z,982.1
2023-04-18T01:42:00.293Z,982.1
2023-04-18T01:43:00.286Z,982.3
2023-04-18T01:44:00.457Z,982.3
2023-04-18T01:45:00.280Z,982.3
2023-04-18T01:46:00.302Z,982.3
2023-04-18T01:47:00.326Z,982.1
2023-04-18T01:48:00.328Z,982.1
2023-04-18T01:49:00.304Z,982.1
2023-04-18T01:50:00.308Z,982.3
2023-04-18T01:51:00.307Z,982.3
2023-04-18T01:52:00.295Z,982.3
2023-04-18T01:53:00.291Z,982.3
2023-04-18T01:54:00.326Z,982.3
2023-04-18T01:55:00.314Z,982.3
2023-04-18T01:56:00.317Z,982.3
2023-04-18T01:57:00.295Z,982.3
2023-04-18T01:58:00.299Z,982.3
2023-04-18T01:59:00.297Z,982.3
2023-04-18T02:00:00.310Z,982.3
2023-04-18T02:01:00.881Z,982.3
2023-04-18T02:02:00.741Z,982.3
2023-04-18T02:03:00.827Z,982.3
2023-04-18T02:04:00.762Z,982.3
2023-04-18T02:05:00.761Z,982.5
2023-04-18T02:06:00.728Z,982.5
2023-04-18T02:07:00.719Z,982.5
2023-04-18T02:08:00.730Z,982.5
2023-04-18T02:09:00.722Z,982.5
2023-04-18T02:10:00.742Z,982.5
2023-04-18T02:11:00.731Z,982.5
2023-04-18T02:12:00.717Z,982.7
2023-04-18T02:13:00.707Z,982.3
2023-04-18T02:14:00.724Z,982.3
2023-04-18T02:15:00.746Z,982.3
2023-04-18T02:16:00.770Z,982.3
2023-04-18T02:17:00.755Z,982.3
2023-04-18T02:18:00.755Z,982.3
2023-04-18T02:19:00.745Z,982.3
2023-04-18T02:20:00.776Z,982.3
2023-04-18T02:21:00.735Z,982.5
2023-04-18T02:22:00.733Z,982.5
2023-04-18T02:23:00.748Z,982.5
2023-04-18T02:24:00.734Z,982.5
2023-04-18T02:25:00.751Z,982.5
2023-04-18T02:26:00.760Z,982.5
2023-04-18T02:27:00.725Z,982.3
2023-04-18T02:28:00.759Z,982.3
2023-04-18T02:29:00.756Z,982.5
2023-04-18T02:30:00.745Z,982.5
2023-04-18T02:31:00.745Z,982.3
2023-04-18T02:32:00.762Z,982.3
2023-04-18T02:33:00.808Z,982.5
2023-04-18T02:34:00.735Z,982.5
2023-04-18T02:35:00.768Z,982.5
2023-04-18T02:36:00.758Z,982.5
2023-04-18T02:37:00.742Z,982.5
2023-04-18T02:38:00.749Z,982.3
2023-04-18T02:39:00.741Z,982.3
2023-04-18T02:40:00.772Z,982.3
2023-04-18T02:41:00.754Z,982.3
2023-04-18T02:42:00.742Z,982.3
2023-04-18T02:43:00.737Z,982.3
2023-04-18T02:44:00.752Z,982.3
2023-04-18T02:45:00.773Z,982.3
2023-04-18T02:46:00.768Z,982.3
2023-04-18T02:47:00.748Z,982.3
2023-04-18T02:48:00.776Z,982.3
2023-04-18T02:49:00.767Z,982.5
2023-04-18T02:50:00.753Z,982.5
2023-04-18T02:51:00.764Z,982.5
2023-04-18T02:52:00.748Z,982.5
2023-04-18T02:53:00.743Z,982.7
2023-04-18T02:54:00.768Z,982.7
2023-04-18T02:55:00.837Z,982.7
2023-04-18T02:56:00.764Z,982.7
2023-04-18T02:57:00.752Z,982.5
2023-04-18T02:58:00.759Z,982.5
2023-04-18T02:59:00.821Z,982.3
2023-04-18T03:00:00.805Z,982.5
2023-04-18T03:01:00.784Z,982.5
2023-04-18T03:02:00.860Z,982.7
2023-04-18T03:03:00.832Z,982.5
2023-04-18T03:04:00.772Z,982.5
2023-04-18T03:05:00.801Z,982.7
2023-04-18T03:06:00.775Z,982.5
2023-04-18T03:07:00.760Z,982.7
2023-04-18T03:08:00.767Z,982.7
2023-04-18T03:09:00.778Z,982.7
2023-04-18T03:10:00.789Z,982.7
2023-04-18T03:11:00.778Z,982.7
2023-04-18T03:12:00.772Z,983
2023-04-18T03:13:00.771Z,983
2023-04-18T03:14:00.798Z,982.7
2023-04-18T03:15:00.780Z,983
2023-04-18T03:16:00.813Z,983.2
2023-04-18T03:17:00.791Z,983.2
2023-04-18T03:18:00.800Z,983.2
2023-04-18T03:19:00.777Z,983.2
2023-04-18T03:20:00.790Z,983.2
2023-04-18T03:21:00.790Z,983.2
2023-04-18T03:22:00.785Z,983.2
2023-04-18T03:23:00.818Z,983.4
2023-04-18T03:24:00.780Z,983.6
2023-04-18T03:25:00.797Z,983.6
2023-04-18T03:26:00.777Z,983.6
2023-04-18T03:27:00.804Z,983.6
2023-04-18T03:28:00.794Z,983.6
2023-04-18T03:29:00.785Z,983.6
2023-04-18T03:30:00.790Z,983.6
2023-04-18T03:31:00.954Z,983.6
2023-04-18T03:32:00.904Z,983.6
2023-04-18T03:33:00.860Z,983.6
2023-04-18T03:34:00.787Z,983.6
2023-04-18T03:35:00.791Z,983.6
2023-04-18T03:36:00.779Z,983.6
2023-04-18T03:37:00.807Z,983.8
2023-04-18T03:38:00.789Z,983.8
2023-04-18T03:39:00.782Z,983.6
2023-04-18T03:40:00.814Z,983.6
2023-04-18T03:41:00.809Z,983.6
2023-04-18T03:42:00.803Z,983.6
2023-04-18T03:43:00.822Z,983.6
2023-04-18T03:44:00.788Z,983.6
2023-04-18T03:45:00.789Z,983.6
2023-04-18T03:46:01.677Z,983.6
2023-04-18T03:47:00.840Z,983.8
2023-04-18T03:48:00.923Z,983.8
2023-04-18T03:49:00.806Z,984
2023-04-18T03:50:00.803Z,984
2023-04-18T03:51:00.842Z,984
2023-04-18T03:52:00.816Z,984
2023-04-18T03:53:00.812Z,984
2023-04-18T03:54:00.800Z,984
2023-04-18T03:55:00.849Z,984
2023-04-18T03:56:00.803Z,984
2023-04-18T03:57:00.831Z,984
2023-04-18T03:58:00.824Z,984
2023-04-18T03:59:00.814Z,984
2023-04-18T04:00:00.821Z,984
2023-04-18T04:01:00.815Z,984
2023-04-18T04:02:00.975Z,984
2023-04-18T04:04:00.894Z,984
2023-04-18T04:05:00.909Z,984
2023-04-18T04:06:00.820Z,984
2023-04-18T04:07:00.836Z,984.3
2023-04-18T04:08:00.829Z,984
2023-04-18T04:09:00.836Z,984
2023-04-18T04:10:00.845Z,984.3
2023-04-18T04:11:00.831Z,984.3
2023-04-18T04:12:00.833Z,984
2023-04-18T04:13:00.827Z,984
2023-04-18T04:14:00.851Z,984.3
2023-04-18T04:15:00.851Z,984
2023-04-18T04:16:00.902Z,984
2023-04-18T04:17:00.826Z,984.3
2023-04-18T04:18:00.873Z,984
2023-04-18T04:19:00.826Z,984.3
2023-04-18T04:20:00.852Z,984.5
2023-04-18T04:21:00.853Z,984.3
2023-04-18T04:22:00.838Z,984.5
2023-04-18T04:23:00.838Z,984.3
2023-04-18T04:24:00.839Z,984.3
2023-04-18T04:25:00.879Z,984.3
2023-04-18T04:26:00.843Z,984.3
2023-04-18T04:27:00.843Z,984.3
2023-04-18T04:28:00.834Z,984.3
2023-04-18T04:29:00.853Z,984.3
2023-04-18T04:30:00.875Z,984.5
2023-04-18T04:31:00.851Z,984.5
2023-04-18T04:32:00.896Z,984.5
2023-04-18T04:33:00.858Z,984.3
2023-04-18T04:34:00.861Z,984.3
2023-04-18T04:35:00.864Z,984.5
2023-04-18T04:36:00.873Z,984.5
2023-04-18T04:37:00.857Z,984.5
2023-04-18T04:38:00.856Z,984.5
2023-04-18T04:39:00.864Z,984.5
2023-04-18T04:40:00.932Z,984.5
2023-04-18T04:41:00.853Z,984.5
2023-04-18T04:44:00.992Z,984.3
2023-04-18T04:45:01.016Z,984.3
2023-04-18T04:46:01.018Z,984.3
2023-04-18T04:47:00.986Z,984
2023-04-18T04:48:01.010Z,984
2023-04-18T04:49:00.986Z,984
2023-04-18T04:50:00.994Z,984.3
2023-04-18T04:51:00.976Z,984.3
2023-04-18T04:52:02.094Z,984.3
2023-04-18T04:53:00.983Z,984.3
2023-04-18T04:54:00.990Z,984.3
2023-04-18T04:55:01.004Z,984.3
2023-04-18T04:56:00.975Z,984.3
2023-04-18T04:57:00.984Z,984
2023-04-18T04:58:01.006Z,984.5
2023-04-18T04:59:00.987Z,984.5
2023-04-18T05:00:01.010Z,984.3
2023-04-18T05:01:01.067Z,984.3
2023-04-18T05:02:01.014Z,984.3
2023-04-18T05:03:01.049Z,984.3
2023-04-18T05:04:01.096Z,984.5
2023-04-18T05:05:01.014Z,984.3
2023-04-18T05:06:01.006Z,984.3
2023-04-18T05:07:01.008Z,984.3
2023-04-18T05:08:01.050Z,984.3
2023-04-18T05:09:01.069Z,984.5
2023-04-18T05:10:01.019Z,984.3
2023-04-18T05:11:01.013Z,984.3
2023-04-18T05:12:00.995Z,984
2023-04-18T05:13:01.014Z,984.3
2023-04-18T05:14:01.006Z,984.5
2023-04-18T05:15:01.056Z,984.3
2023-04-18T05:16:01.005Z,984.5
2023-04-18T05:17:01.102Z,984.5
2023-04-18T05:18:01.099Z,984.5
2023-04-18T05:19:00.352Z,984.5
2023-04-18T05:20:00.366Z,984.5
2023-04-18T05:21:00.375Z,984.5
2023-04-18T05:22:00.316Z,984.5
2023-04-18T05:23:00.354Z,984.5
2023-04-18T05:24:00.328Z,984.5
2023-04-18T05:25:00.338Z,984.5
2023-04-18T05:26:00.344Z,984.5
2023-04-18T05:27:00.325Z,984.3
2023-04-18T05:28:00.316Z,984.5
2023-04-18T05:29:00.337Z,984.5
2023-04-18T05:30:00.378Z,984.3
2023-04-18T05:31:00.370Z,984.5
2023-04-18T05:32:00.341Z,984.5
2023-04-18T05:33:00.410Z,984.5
2023-04-18T05:34:00.346Z,984
2023-04-18T05:35:00.360Z,984.3
2023-04-18T05:36:00.365Z,984.3
2023-04-18T05:37:00.360Z,984.3
2023-04-18T05:38:00.364Z,984
2023-04-18T05:39:00.377Z,984
2023-04-18T05:40:01.124Z,984.3
2023-04-18T05:41:00.467Z,984.3
2023-04-18T05:42:00.352Z,984.5
2023-04-18T05:43:00.352Z,984.3
2023-04-18T05:44:05.390Z,984.5
2023-04-18T05:45:00.368Z,984.3
2023-04-18T05:46:00.405Z,984.5
2023-04-18T05:47:00.376Z,984.3
2023-04-18T05:48:00.412Z,984
2023-04-18T05:49:00.368Z,984
2023-04-18T05:50:00.440Z,984
2023-04-18T05:51:00.437Z,984.3
2023-04-18T05:52:00.383Z,984.3
2023-04-18T05:53:00.433Z,984
2023-04-18T05:54:00.405Z,984.3
2023-04-18T05:55:00.390Z,984.3
2023-04-18T05:56:00.413Z,984.5
2023-04-18T05:57:01.750Z,984.5
2023-04-18T05:58:00.395Z,984.5
2023-04-18T05:59:00.501Z,984.5
2023-04-18T06:00:00.409Z,984.5
2023-04-18T06:01:00.388Z,984.5
2023-04-18T06:02:00.476Z,984.5
2023-04-18T06:03:00.543Z,984.5
2023-04-18T06:04:00.704Z,984.5
2023-04-18T06:05:00.580Z,984.5
2023-04-18T06:06:00.488Z,984.5
2023-04-18T06:07:00.387Z,984.5
2023-04-18T06:08:00.401Z,984.5
2023-04-18T06:09:00.377Z,984.7
2023-04-18T06:10:00.413Z,984.7
2023-04-18T06:11:00.420Z,984.7
2023-04-18T06:12:00.371Z,984.9
2023-04-18T06:13:00.419Z,984.9
2023-04-18T06:14:00.381Z,984.7
2023-04-18T06:15:00.442Z,984.9
2023-04-18T06:16:00.444Z,984.9
2023-04-18T06:17:00.398Z,984.9
2023-04-18T06:18:00.441Z,984.9
2023-04-18T06:19:01.448Z,984.9
2023-04-18T06:20:00.424Z,984.9
2023-04-18T06:21:00.392Z,984.9
2023-04-18T06:22:00.384Z,984.9
2023-04-18T06:23:00.383Z,984.7
2023-04-18T06:24:00.391Z,984.9
2023-04-18T06:25:00.439Z,984.9
2023-04-18T06:26:00.411Z,984.9
2023-04-18T06:27:00.417Z,984.9
2023-04-18T06:28:00.399Z,984.9
2023-04-18T06:29:00.396Z,984.9
2023-04-18T06:30:00.456Z,984.9
2023-04-18T06:31:00.416Z,985.1
2023-04-18T06:32:00.508Z,984.9
2023-04-18T06:33:00.504Z,984.9
2023-04-18T06:34:00.421Z,984.9
2023-04-18T06:35:00.421Z,984.9
2023-04-18T06:36:00.401Z,984.7
2023-04-18T06:37:00.445Z,984.9
2023-04-18T06:38:00.426Z,984.9
2023-04-18T06:39:00.420Z,984.9
2023-04-18T06:40:00.449Z,984.9
2023-04-18T06:41:00.428Z,984.9
2023-04-18T06:42:00.409Z,984.9
2023-04-18T06:43:00.439Z,984.9
2023-04-18T06:44:03.975Z,984.9
2023-04-18T06:45:00.453Z,984.7
2023-04-18T06:46:00.470Z,984.7
2023-04-18T06:47:00.429Z,984.9
2023-04-18T06:48:00.473Z,984.9
2023-04-18T06:49:00.436Z,984.7
2023-04-18T06:50:00.443Z,984.7
2023-04-18T06:51:00.436Z,984.7
2023-04-18T06:52:00.418Z,984.5
2023-04-18T06:53:00.437Z,984.7
2023-04-18T06:54:00.442Z,984.7
2023-04-18T06:55:00.450Z,984.7
2023-04-18T06:56:00.465Z,984.7
2023-04-18T06:57:00.423Z,984.7
2023-04-18T06:58:00.499Z,984.7
2023-04-18T06:59:00.428Z,984.7
2023-04-18T07:00:00.446Z,984.7
2023-04-18T07:01:00.469Z,984.7
2023-04-18T07:02:00.477Z,984.5
2023-04-18T07:03:00.651Z,984.7
2023-04-18T07:04:00.626Z,984.7
2023-04-18T07:05:00.431Z,984.7
2023-04-18T07:06:00.446Z,984.9
2023-04-18T07:07:00.453Z,984.7
2023-04-18T07:08:00.444Z,984.5
2023-04-18T07:09:00.446Z,984.5
2023-04-18T07:10:00.432Z,984.7
2023-04-18T07:11:00.453Z,984.7
2023-04-18T07:12:00.454Z,984.7
2023-04-18T07:13:00.439Z,984.7
2023-04-18T07:14:00.441Z,984.5
2023-04-18T07:15:00.462Z,984.5
2023-04-18T07:16:00.470Z,984.5
2023-04-18T07:17:00.484Z,984.5
2023-04-18T07:18:00.476Z,984.5
2023-04-18T07:19:00.511Z,984.5
2023-04-18T07:20:00.463Z,984.5
2023-04-18T07:21:00.478Z,984.5
2023-04-18T07:22:00.443Z,984.5
2023-04-18T07:23:00.473Z,984.5
2023-04-18T07:24:00.464Z,984.5
2023-04-18T07:25:00.441Z,984.3
2023-04-18T07:26:00.438Z,984.5
2023-04-18T07:27:00.444Z,984.5
2023-04-18T07:28:00.475Z,984.3
2023-04-18T07:29:00.447Z,984.5
2023-04-18T07:30:00.512Z,984.5
2023-04-18T07:31:00.459Z,984.5
2023-04-18T07:32:00.489Z,984.5
2023-04-18T07:33:00.515Z,984.5
2023-04-18T07:34:00.472Z,984.3
2023-04-18T07:35:00.491Z,984.5
2023-04-18T07:36:00.477Z,984.5
2023-04-18T07:37:00.475Z,984.5
2023-04-18T07:38:00.485Z,984.5
2023-04-18T07:39:00.500Z,984.5
2023-04-18T07:40:00.460Z,984.5
2023-04-18T07:41:00.458Z,984.5
2023-04-18T07:42:00.465Z,984.5
2023-04-18T07:43:00.499Z,984.5
2023-04-18T07:44:00.492Z,984.5
2023-04-18T07:45:00.465Z,984.5
2023-04-18T07:46:00.480Z,984.3
2023-04-18T07:47:00.487Z,984.5
2023-04-18T07:48:00.506Z,984.3
2023-04-18T07:49:00.509Z,984.3
2023-04-18T07:50:00.490Z,984.3
2023-04-18T07:51:00.487Z,984.3
2023-04-18T07:52:00.478Z,984
2023-04-18T07:53:00.496Z,984
2023-04-18T07:54:00.500Z,984.3
2023-04-18T07:55:00.482Z,984.5
2023-04-18T07:56:00.494Z,984.5
2023-04-18T07:57:00.496Z,984.5
2023-04-18T07:58:00.509Z,984.5
2023-04-18T07:59:00.484Z,984.5
2023-04-18T08:00:00.484Z,984.5
2023-04-18T08:01:00.501Z,984.5
2023-04-18T08:02:00.550Z,984.5
2023-04-18T08:03:00.681Z,984.5
2023-04-18T08:04:00.692Z,984.5
2023-04-18T08:05:00.763Z,984.3
2023-04-18T08:06:00.507Z,984.3
2023-04-18T08:07:00.509Z,984.3
2023-04-18T08:08:00.494Z,984.5
2023-04-18T08:09:00.519Z,984.3
2023-04-18T08:10:00.499Z,984
2023-04-18T08:11:00.525Z,984
2023-04-18T08:12:00.501Z,984
2023-04-18T08:13:00.516Z,984
2023-04-18T08:14:00.524Z,983.8
2023-04-18T08:15:00.501Z,983.4
2023-04-18T08:16:00.517Z,983.6
2023-04-18T08:17:00.514Z,983.6
2023-04-18T08:18:00.619Z,983.8
2023-04-18T08:19:00.518Z,984
2023-04-18T08:20:00.536Z,983.8
2023-04-18T08:21:00.530Z,983.6
2023-04-18T08:22:00.509Z,983.6
2023-04-18T08:24:00.526Z,983.8
2023-04-18T08:25:04.814Z,984
2023-04-18T08:26:00.511Z,984
2023-04-18T08:27:00.520Z,984
2023-04-18T08:28:00.570Z,984
2023-04-18T08:29:00.536Z,984
2023-04-18T08:30:00.608Z,984
2023-04-18T08:31:00.526Z,983.8
2023-04-18T08:32:00.584Z,983.8
2023-04-18T08:33:00.674Z,983.8
2023-04-18T08:34:01.331Z,983.8
2023-04-18T08:35:00.838Z,984
2023-04-18T08:36:00.521Z,983.6
2023-04-18T08:37:00.528Z,983.6
2023-04-18T08:38:00.545Z,983.2
2023-04-18T08:39:00.535Z,983.2
2023-04-18T08:40:00.524Z,983.6
2023-04-18T08:41:00.529Z,983.6
2023-04-18T08:42:00.528Z,983.4
2023-04-18T08:43:00.547Z,983.4
2023-04-18T08:44:00.583Z,983.6
2023-04-18T08:45:00.545Z,983.6
2023-04-18T08:46:00.614Z,983.6
2023-04-18T08:47:00.537Z,983.2
2023-04-18T08:48:00.608Z,983.2
2023-04-18T08:49:00.558Z,983.2
2023-04-18T08:50:00.578Z,983.2
2023-04-18T08:51:00.581Z,983.2
2023-04-18T08:52:00.538Z,983.2
2023-04-18T08:53:00.567Z,983.2
2023-04-18T08:54:00.554Z,983.2
2023-04-18T08:55:00.546Z,983.2
2023-04-18T08:56:00.565Z,983.2
2023-04-18T08:57:00.543Z,983.2
2023-04-18T08:58:00.565Z,983.2
2023-04-18T08:59:00.588Z,983
2023-04-18T09:00:00.568Z,983.2
2023-04-18T09:01:00.602Z,983
2023-04-18T09:02:00.586Z,983
2023-04-18T09:03:00.682Z,983
2023-04-18T09:04:00.656Z,983
2023-04-18T09:05:00.578Z,982.7
2023-04-18T09:06:00.550Z,982.7
2023-04-18T09:07:00.573Z,983
2023-04-18T09:08:00.583Z,983.2
2023-04-18T09:09:00.574Z,983
2023-04-18T09:10:00.561Z,982.5
2023-04-18T09:11:00.555Z,982.5
2023-04-18T09:12:00.588Z,982.7
2023-04-18T09:13:00.567Z,982.5
2023-04-18T09:14:00.626Z,982.3
2023-04-18T09:15:00.587Z,982.7
2023-04-18T09:16:00.566Z,982.5
2023-04-18T09:17:00.672Z,982.7
2023-04-18T09:18:00.603Z,982.7
2023-04-18T09:19:00.589Z,982.7
2023-04-18T09:20:00.590Z,982.7
2023-04-18T09:21:00.571Z,983
2023-04-18T09:22:00.580Z,982.7
2023-04-18T09:23:00.601Z,982.7
2023-04-18T09:24:00.596Z,982.7
2023-04-18T09:25:00.592Z,982.7
2023-04-18T09:26:00.587Z,982.7
2023-04-18T09:27:00.629Z,982.7
2023-04-18T09:28:00.584Z,982.5
2023-04-18T09:29:00.603Z,982.3
2023-04-18T09:30:00.617Z,982.3
2023-04-18T09:31:00.642Z,982.3
2023-04-18T09:32:00.598Z,981.7
2023-04-18T09:33:00.648Z,981.7
2023-04-18T09:34:00.659Z,981.4
2023-04-18T09:35:03.402Z,981.2
2023-04-18T09:36:00.583Z,981.4
2023-04-18T09:37:00.639Z,981.4
2023-04-18T09:38:00.600Z,981.4
2023-04-18T09:39:00.738Z,981
2023-04-18T09:40:00.596Z,981
2023-04-18T09:41:00.595Z,981
2023-04-18T09:42:00.604Z,981.2
2023-04-18T09:43:00.598Z,981.4
2023-04-18T09:44:00.620Z,981.4
2023-04-18T09:45:00.614Z,981.4
2023-04-18T09:46:00.637Z,981.4
2023-04-18T09:47:00.606Z,981
2023-04-18T09:48:00.658Z,981.2
2023-04-18T09:49:00.621Z,981.4
2023-04-18T09:50:00.631Z,981
2023-04-18T09:51:00.623Z,980.6
2023-04-18T09:52:00.610Z,981
2023-04-18T09:53:00.617Z,981
2023-04-18T09:54:00.619Z,981
2023-04-18T09:55:00.602Z,980.6
2023-04-18T09:56:00.622Z,981
2023-04-18T09:57:00.600Z,981.2
2023-04-18T09:58:00.615Z,981
2023-04-18T09:59:00.619Z,981
2023-04-18T10:00:00.632Z,980.6
2023-04-18T10:01:00.657Z,980.6
2023-04-18T10:02:00.662Z,980.6
2023-04-18T10:03:00.673Z,980.6
2023-04-18T10:04:00.752Z,981
2023-04-18T10:05:00.749Z,981
2023-04-18T10:06:00.632Z,980.6
2023-04-18T10:07:00.622Z,980.1
2023-04-18T10:08:00.627Z,979.9
2023-04-18T10:09:00.632Z,979.5
2023-04-18T10:10:00.613Z,979.3
2023-04-18T10:11:00.643Z,978.8
2023-04-18T10:12:00.614Z,978.4
2023-04-18T10:13:00.615Z,979.3
2023-04-18T10:14:00.629Z,979.5
2023-04-18T10:15:00.625Z,979.3
2023-04-18T10:16:00.717Z,979.3
2023-04-18T10:17:00.655Z,979.3
2023-04-18T10:18:05.254Z,979.5
2023-04-18T10:19:00.640Z,979.3
2023-04-18T10:20:00.655Z,979.5
2023-04-18T10:21:00.663Z,979
2023-04-18T10:22:00.661Z,978.8
2023-04-18T10:23:00.639Z,979.3
2023-04-18T10:24:00.636Z,979.3
2023-04-18T10:25:00.643Z,979.3
2023-04-18T10:26:00.674Z,979.3
2023-04-18T10:27:00.633Z,979.3
2023-04-18T10:28:00.632Z,979.3
2023-04-18T10:29:00.630Z,978.8
2023-04-18T10:30:00.664Z,979.3
2023-04-18T10:31:00.704Z,979.3
2023-04-18T10:32:00.732Z,978.6
2023-04-18T10:33:00.684Z,978
2023-04-18T10:35:00.679Z,978.6
2023-04-18T10:36:00.677Z,978.8
2023-04-18T10:37:00.646Z,978.6
2023-04-18T10:38:00.651Z,978
2023-04-18T10:39:00.657Z,977.5
2023-04-18T10:40:00.658Z,978
2023-04-18T10:41:00.702Z,978
2023-04-18T10:42:00.653Z,977.3
2023-04-18T10:43:00.690Z,978
2023-04-18T10:44:00.661Z,978
2023-04-18T10:45:01.751Z,978.4
2023-04-18T10:46:00.707Z,978.4
2023-04-18T10:47:00.742Z,978
2023-04-18T10:48:00.698Z,977.1
2023-04-18T10:49:00.659Z,977.5
2023-04-18T10:50:00.670Z,977.5
2023-04-18T10:51:00.698Z,977.5
2023-04-18T10:52:00.658Z,977.5
2023-04-18T10:53:00.668Z,976.7
2023-04-18T10:54:00.671Z,976.2
2023-04-18T10:55:00.688Z,976.7
2023-04-18T10:56:00.698Z,977.1
2023-04-18T10:57:00.686Z,976.2
2023-04-18T10:58:00.670Z,976.4
2023-04-18T10:59:00.687Z,976.9
2023-04-18T11:00:00.707Z,976.9
2023-04-18T11:01:00.724Z,975.6
2023-04-18T11:02:00.780Z,976.4
2023-04-18T11:03:00.850Z,976.2
2023-04-18T11:04:01.101Z,975.8
2023-04-18T11:05:00.689Z,975.4
2023-04-18T11:06:00.697Z,975.4
2023-04-18T11:07:00.691Z,975.4
2023-04-18T11:08:00.699Z,975.1
2023-04-18T11:09:00.687Z,975.1
2023-04-18T11:10:00.692Z,974.9
2023-04-18T11:11:00.722Z,975.4
2023-04-18T11:12:00.687Z,975.4
2023-04-18T11:13:00.682Z,975.1
2023-04-18T11:14:00.704Z,975.1
2023-04-18T11:15:00.692Z,975.4
2023-04-18T11:16:00.724Z,975.4
2023-04-18T11:17:00.759Z,973.8
2023-04-18T11:18:00.788Z,974
2023-04-18T11:19:00.694Z,973.8
2023-04-18T11:20:00.637Z,974
2023-04-18T11:21:00.641Z,974
2023-04-18T11:22:00.603Z,973.2
2023-04-18T11:23:00.545Z,972.1
2023-04-18T11:24:00.528Z,973
2023-04-18T11:25:00.516Z,973.8
2023-04-18T11:26:00.496Z,974
2023-04-18T11:27:00.539Z,973.8
2023-04-18T11:28:00.416Z,973.2
2023-04-18T11:29:00.383Z,973
2023-04-18T11:30:00.362Z,973.6
2023-04-18T11:31:00.342Z,973.2
2023-04-18T11:32:00.343Z,972.7
2023-04-18T11:33:00.341Z,971.2
2023-04-18T11:34:00.270Z,971.4
2023-04-18T11:35:00.292Z,971.9
2023-04-18T11:36:00.272Z,972.5
2023-04-18T11:37:00.298Z,971.9
2023-04-18T11:38:00.288Z,971.9
2023-04-18T11:39:00.276Z,971.9
2023-04-18T11:40:00.321Z,971.9
2023-04-18T11:41:00.343Z,971.9
2023-04-18T11:42:00.305Z,971.4
2023-04-18T11:43:00.282Z,971.7
2023-04-18T11:44:00.292Z,971.2
2023-04-18T11:45:00.325Z,971.4
2023-04-18T11:46:00.412Z,971.9
2023-04-18T11:47:00.301Z,971.2
2023-04-18T11:48:00.333Z,971
2023-04-18T11:49:00.342Z,970.1
2023-04-18T11:50:00.300Z,970.4
2023-04-18T11:51:00.307Z,970.1
2023-04-18T11:52:00.311Z,970.1
2023-04-18T11:53:00.285Z,969.7
2023-04-18T11:54:00.288Z,969
2023-04-18T11:55:00.343Z,969.5
2023-04-18T11:56:00.312Z,969.3
2023-04-18T11:57:00.307Z,968.8
2023-04-18T11:58:00.308Z,969
2023-04-18T11:59:00.313Z,969
2023-04-18T12:00:00.317Z,969.3
2023-04-18T12:01:00.326Z,969.3
2023-04-18T12:02:09.071Z,968.4
2023-04-18T12:03:00.508Z,968.8
2023-04-18T12:04:00.683Z,967.3
2023-04-18T12:05:00.673Z,968.4
2023-04-18T12:06:00.609Z,968.4
2023-04-18T12:07:00.302Z,968.8
2023-04-18T12:08:00.320Z,968.8
2023-04-18T12:09:00.334Z,968.6
2023-04-18T12:10:00.333Z,968.4
2023-04-18T12:11:00.311Z,968.4
2023-04-18T12:12:00.304Z,968
2023-04-18T12:13:00.353Z,968.4
2023-04-18T12:14:01.634Z,968.2
2023-04-18T12:15:00.320Z,967.3
2023-04-18T12:16:00.373Z,968
2023-04-18T12:17:00.319Z,968.4
2023-04-18T12:18:00.415Z,967.5
2023-04-18T12:19:00.338Z,967.1
2023-04-18T12:20:00.334Z,966.4
2023-04-18T12:21:00.310Z,966.7
2023-04-18T12:22:00.364Z,967.1
2023-04-18T12:23:00.349Z,965.6
2023-04-18T12:24:00.341Z,966.7
2023-04-18T12:25:00.353Z,966
2023-04-18T12:26:00.324Z,966.9
2023-04-18T12:27:00.323Z,967.1
2023-04-18T12:28:00.356Z,967.1
2023-04-18T12:29:00.378Z,966.7
2023-04-18T12:30:00.328Z,966.9
2023-04-18T12:31:00.434Z,964.5
2023-04-18T12:32:00.373Z,965.8
2023-04-18T12:33:00.412Z,966.4
2023-04-18T12:34:00.363Z,965.8
2023-04-18T12:35:00.354Z,964.9
2023-04-18T12:36:00.413Z,965.6
2023-04-18T12:37:00.359Z,966.2
2023-04-18T12:38:00.348Z,966.7
2023-04-18T12:39:00.360Z,965.8
2023-04-18T12:40:00.371Z,965.4
2023-04-18T12:41:00.336Z,966
2023-04-18T12:42:00.365Z,966.7
2023-04-18T12:43:02.902Z,965.8
2023-04-18T12:44:00.382Z,965.4
2023-04-18T12:45:00.428Z,964.9
2023-04-18T12:46:00.377Z,966.2
2023-04-18T12:47:00.453Z,966
2023-04-18T12:48:00.423Z,965.8
2023-04-18T12:49:00.381Z,963.6
2023-04-18T12:50:00.374Z,964.3
2023-04-18T12:51:00.368Z,964.5
2023-04-18T12:52:00.366Z,964.9
2023-04-18T12:53:00.398Z,964.5
2023-04-18T12:54:00.371Z,965.1
2023-04-18T12:55:00.383Z,963.6
2023-04-18T12:56:00.358Z,964
2023-04-18T12:57:00.353Z,963.4
2023-04-18T12:58:00.379Z,963
2023-04-18T12:59:00.391Z,964.5
2023-04-18T13:00:00.382Z,963.8
2023-04-18T13:01:00.412Z,963.6
2023-04-18T13:02:00.563Z,963.6
2023-04-18T13:03:00.489Z,964
2023-04-18T13:04:11.498Z,963.6